createdAt,value
2023-03-21T00:00:34.435Z,99126.06
2023-03-21T00:03:01.046Z,99125.78
2023-03-21T00:05:27.567Z,99135.28
2023-03-21T00:07:54.184Z,99129.22
2023-03-21T00:10:33.131Z,99130.38
2023-03-21T00:13:06.300Z,99125.31
2023-03-21T00:15:44.102Z,99125.22
2023-03-21T00:18:21.503Z,99125.88
2023-03-21T00:20:48.200Z,99123.78
2023-03-21T00:23:14.970Z,99122.63
2023-03-21T00:25:41.446Z,99130.28
2023-03-21T00:28:08.825Z,99119.06
2023-03-21T00:30:35.321Z,99124.78
2023-03-21T00:33:12.047Z,99122.81
2023-03-21T00:36:12.925Z,99115.22
2023-03-21T00:38:32.554Z,99127.31
2023-03-21T00:41:04.763Z,99115.59
2023-03-21T00:43:32.231Z,99108.50
2023-03-21T00:45:59.678Z,99112.31
2023-03-21T00:48:27.225Z,99116.81
2023-03-21T00:50:53.697Z,99117.81
2023-03-21T00:53:20.269Z,99119.78
2023-03-21T00:55:46.775Z,99126.19
2023-03-21T00:58:13.242Z,99116.03
2023-03-21T01:00:42.165Z,99123.59
2023-03-21T01:03:23.255Z,99123.78
2023-03-21T01:05:51.239Z,99116.59
2023-03-21T01:08:26.638Z,99120.63
2023-03-21T01:10:55.909Z,99118.03
2023-03-21T01:13:22.648Z,99121.34
2023-03-21T01:15:50.093Z,99114.63
2023-03-21T01:18:16.554Z,99113.16
2023-03-21T01:20:43.268Z,99108.31
2023-03-21T01:23:11.201Z,99110.88
2023-03-21T01:25:39.884Z,99110.94
2023-03-21T01:28:08.888Z,99114.53
2023-03-21T01:30:41.619Z,99105.47
2023-03-21T01:33:08.521Z,99110.81
2023-03-21T01:35:47.958Z,99112.44
2023-03-21T01:38:16.683Z,99109.63
2023-03-21T01:40:43.078Z,99109.63
2023-03-21T01:43:09.869Z,99106.91
2023-03-21T01:45:36.645Z,99111.31
2023-03-21T01:48:03.479Z,99117.38
2023-03-21T01:50:30.960Z,99102.06
2023-03-21T01:52:57.740Z,99104.63
2023-03-21T01:55:24.190Z,99108.41
2023-03-21T01:58:04.297Z,99093.22
2023-03-21T02:00:31.691Z,99100.53
2023-03-21T02:03:11.350Z,99093.94
2023-03-21T02:05:38.940Z,99094.31
2023-03-21T02:08:05.557Z,99087.16
2023-03-21T02:10:32.082Z,99092.44
2023-03-21T02:12:58.604Z,99095.69
2023-03-21T02:15:25.285Z,99094.13
2023-03-21T02:17:51.908Z,99087.16
2023-03-21T02:20:18.950Z,99089.22
2023-03-21T02:22:45.425Z,99088.94
2023-03-21T02:25:21.256Z,99095.09
2023-03-21T02:27:48.429Z,99086.41
2023-03-21T02:30:20.196Z,99077.94
2023-03-21T02:32:53.660Z,99083.03
2023-03-21T02:35:20.842Z,99089.44
2023-03-21T02:37:58.314Z,99086.41
2023-03-21T02:40:26.725Z,99077.34
2023-03-21T02:43:00.029Z,99074.53
2023-03-21T02:45:27.527Z,99070.19
2023-03-21T02:47:55.780Z,99065.78
2023-03-21T02:50:28.037Z,99072.66
2023-03-21T02:52:55.921Z,99063.56
2023-03-21T02:55:22.422Z,99067.91
2023-03-21T02:57:49.225Z,99065.47
2023-03-21T03:00:17.366Z,99062.25
2023-03-21T03:02:44.257Z,99061.59
2023-03-21T03:05:20.437Z,99062.09
2023-03-21T03:07:47.778Z,99066.09
2023-03-21T03:10:14.544Z,99064.31
2023-03-21T03:12:41.474Z,99070.53
2023-03-21T03:15:08.845Z,99074.16
2023-03-21T03:17:35.387Z,99072.44
2023-03-21T03:20:10.414Z,99075.09
2023-03-21T03:22:42.808Z,99076.56
2023-03-21T03:25:21.420Z,99079.16
2023-03-21T03:27:55.102Z,99073.78
2023-03-21T03:30:23.813Z,99074.25
2023-03-21T03:32:52.760Z,99079.22
2023-03-21T03:35:19.576Z,99071.28
2023-03-21T03:37:47.001Z,99077.88
2023-03-21T03:40:13.530Z,99073.19
2023-03-21T03:42:40.111Z,99069.06
2023-03-21T03:45:06.671Z,99073.09
2023-03-21T03:47:39.896Z,99072.44
2023-03-21T03:50:09.810Z,99075.81
2023-03-21T03:52:40.005Z,99069.78
2023-03-21T03:55:08.846Z,99066.78
2023-03-21T03:57:35.404Z,99071.25
2023-03-21T04:00:01.845Z,99066.06
2023-03-21T04:02:28.301Z,99063.59
2023-03-21T04:04:54.746Z,99068.38
2023-03-21T04:07:21.682Z,99064.03
2023-03-21T04:09:48.157Z,99070.75
2023-03-21T04:12:14.575Z,99067.09
2023-03-21T04:14:45.860Z,99063.44
2023-03-21T04:17:13.409Z,99065.50
2023-03-21T04:19:39.833Z,99063.00
2023-03-21T04:22:07.411Z,99070.50
2023-03-21T04:24:34.425Z,99065.06
2023-03-21T04:27:01.037Z,99071.00
2023-03-21T04:29:27.898Z,99078.41
2023-03-21T04:31:54.425Z,99077.03
2023-03-21T04:34:24.074Z,99081.38
2023-03-21T04:36:50.649Z,99082.03
2023-03-21T04:39:17.352Z,99084.59
2023-03-21T04:41:44.365Z,99079.09
2023-03-21T04:44:10.784Z,99078.16
2023-03-21T04:46:38.317Z,99079.94
2023-03-21T04:49:04.804Z,99075.06
2023-03-21T04:51:31.859Z,99071.19
2023-03-21T04:53:58.250Z,99074.59
2023-03-21T04:56:24.704Z,99081.88
2023-03-21T04:58:51.251Z,99080.22
2023-03-21T05:01:19.508Z,99087.03
2023-03-21T05:03:46.323Z,99082.78
2023-03-21T05:06:12.957Z,99088.28
2023-03-21T05:08:39.377Z,99090.75
2023-03-21T05:11:05.884Z,99088.81
2023-03-21T05:13:33.862Z,99096.34
2023-03-21T05:16:00.303Z,99088.53
2023-03-21T05:18:26.847Z,99095.31
2023-03-21T05:20:54.076Z,99098.00
2023-03-21T05:23:20.510Z,99097.59
2023-03-21T05:25:49.808Z,99107.25
2023-03-21T05:28:16.746Z,99096.56
2023-03-21T05:30:43.170Z,99100.13
2023-03-21T05:33:10.898Z,99100.56
2023-03-21T05:35:37.986Z,99097.06
2023-03-21T05:38:05.083Z,99103.47
2023-03-21T05:40:31.679Z,99110.22
2023-03-21T05:42:58.543Z,99101.41
2023-03-21T05:45:25.207Z,99100.63
2023-03-21T05:47:51.732Z,99103.00
2023-03-21T05:50:18.307Z,99105.97
2023-03-21T05:52:45.041Z,99116.75
2023-03-21T05:55:11.470Z,99114.03
2023-03-21T05:57:38.957Z,99101.94
2023-03-21T06:00:05.813Z,99096.72
2023-03-21T06:02:32.457Z,99100.44
2023-03-21T06:04:59.002Z,99103.84
2023-03-21T06:07:25.646Z,99092.63
2023-03-21T06:09:52.133Z,99095.84
2023-03-21T06:12:19.069Z,99109.28
2023-03-21T06:14:45.938Z,99107.19
2023-03-21T06:17:12.401Z,99099.25
2023-03-21T06:19:38.936Z,99102.34
2023-03-21T06:22:05.479Z,99106.47
2023-03-21T06:24:31.967Z,99095.22
2023-03-21T06:26:58.848Z,99108.63
2023-03-21T06:29:25.772Z,99116.97
2023-03-21T06:31:52.175Z,99112.75
2023-03-21T06:34:19.094Z,99119.84
2023-03-21T06:36:45.543Z,99116.44
2023-03-21T06:39:13.023Z,99119.75
2023-03-21T06:41:39.506Z,99120.19
2023-03-21T06:44:06.078Z,99119.06
2023-03-21T06:46:32.584Z,99120.69
2023-03-21T06:49:00.021Z,99130.19
2023-03-21T06:51:26.543Z,99122.03
2023-03-21T06:53:53.010Z,99134.34
2023-03-21T06:56:19.780Z,99132.34
2023-03-21T06:58:46.594Z,99125.78
2023-03-21T07:01:13.167Z,99132.47
2023-03-21T07:03:39.867Z,99136.81
2023-03-21T07:06:06.467Z,99127.59
2023-03-21T07:08:33.334Z,99133.69
2023-03-21T07:10:59.905Z,99124.88
2023-03-21T07:13:26.457Z,99125.19
2023-03-21T07:15:52.986Z,99121.31
2023-03-21T07:18:19.714Z,99132.75
2023-03-21T07:20:46.809Z,99129.09
2023-03-21T07:23:14.262Z,99118.50
2023-03-21T07:25:41.045Z,99128.13
2023-03-21T07:28:08.227Z,99124.78
2023-03-21T07:30:34.955Z,99117.44
2023-03-21T07:33:01.995Z,99123.94
2023-03-21T07:35:28.650Z,99125.69
2023-03-21T07:37:57.434Z,99126.59
2023-03-21T07:40:23.873Z,99129.59
2023-03-21T07:42:50.316Z,99127.47
2023-03-21T07:45:19.254Z,99126.22
2023-03-21T07:47:47.506Z,99124.47
2023-03-21T07:50:14.341Z,99118.81
2023-03-21T07:52:41.238Z,99123.69
2023-03-21T07:55:07.811Z,99125.97
2023-03-21T07:57:34.242Z,99118.31
2023-03-21T08:00:01.348Z,99118.66
2023-03-21T08:02:28.787Z,99118.28
2023-03-21T08:04:55.650Z,99128.00
2023-03-21T08:07:24.048Z,99122.69
2023-03-21T08:09:50.616Z,99123.78
2023-03-21T08:12:17.321Z,99123.78
2023-03-21T08:14:44.323Z,99122.84
2023-03-21T08:17:11.403Z,99126.94
2023-03-21T08:19:39.154Z,99127.09
2023-03-21T08:22:05.536Z,99111.69
2023-03-21T08:24:32.071Z,99123.03
2023-03-21T08:26:58.586Z,99133.22
2023-03-21T08:29:25.119Z,99129.44
2023-03-21T08:31:51.895Z,99119.78
2023-03-21T08:34:18.538Z,99127.38
2023-03-21T08:36:45.352Z,99121.28
2023-03-21T08:39:11.853Z,99121.53
2023-03-21T08:41:38.364Z,99139.81
2023-03-21T08:44:05.159Z,99123.94
2023-03-21T08:46:32.032Z,99134.75
2023-03-21T08:48:58.665Z,99120.91
2023-03-21T08:51:25.396Z,99117.72
2023-03-21T08:53:52.164Z,99125.00
2023-03-21T08:56:18.914Z,99115.19
2023-03-21T08:58:45.410Z,99125.72
2023-03-21T09:01:12.132Z,99122.84
2023-03-21T09:03:40.096Z,99126.38
2023-03-21T09:06:06.653Z,99125.19
2023-03-21T09:08:33.353Z,99124.59
2023-03-21T09:10:59.812Z,99114.50
2023-03-21T09:13:26.678Z,99118.16
2023-03-21T09:15:53.155Z,99116.25
2023-03-21T09:18:19.688Z,99119.75
2023-03-21T09:20:48.173Z,99112.91
2023-03-21T09:23:15.440Z,99110.91
2023-03-21T09:25:41.907Z,99107.44
2023-03-21T09:28:08.469Z,99110.03
2023-03-21T09:30:35.033Z,99104.50
2023-03-21T09:33:01.436Z,99103.56
2023-03-21T09:35:27.982Z,99106.59
2023-03-21T09:37:55.159Z,99111.13
2023-03-21T09:40:21.859Z,99101.03
2023-03-21T09:42:48.361Z,99100.66
2023-03-21T09:45:14.824Z,99096.84
2023-03-21T09:47:41.635Z,99097.59
2023-03-21T09:50:14.678Z,99094.31
2023-03-21T09:52:41.608Z,99081.56
2023-03-21T09:55:08.118Z,99090.47
2023-03-21T09:57:34.652Z,99088.31
2023-03-21T10:00:01.495Z,99083.97
2023-03-21T10:02:29.048Z,99085.16
2023-03-21T10:04:55.721Z,99087.13
2023-03-21T10:07:22.626Z,99083.25
2023-03-21T10:09:49.346Z,99075.78
2023-03-21T10:12:16.154Z,99074.91
2023-03-21T10:14:42.687Z,99076.00
2023-03-21T10:17:09.324Z,99058.59
2023-03-21T10:19:37.787Z,99074.38
2023-03-21T10:22:04.557Z,99069.06
2023-03-21T10:24:31.135Z,99059.75
2023-03-21T10:26:57.640Z,99065.03
2023-03-21T10:29:24.133Z,99060.00
2023-03-21T10:31:51.004Z,99063.13
2023-03-21T10:34:17.539Z,99063.25
2023-03-21T10:36:43.982Z,99056.41
2023-03-21T10:39:12.849Z,99060.97
2023-03-21T10:41:40.658Z,99067.50
2023-03-21T10:44:07.359Z,99058.69
2023-03-21T10:46:36.154Z,99061.25
2023-03-21T10:49:03.354Z,99064.13
2023-03-21T10:51:29.874Z,99068.31
2023-03-21T10:53:56.331Z,99059.38
2023-03-21T10:56:22.834Z,99058.81
2023-03-21T10:58:51.715Z,99068.13
2023-03-21T11:01:18.604Z,99063.78
2023-03-21T11:03:45.078Z,99049.50
2023-03-21T11:06:11.474Z,99057.19
2023-03-21T11:08:38.042Z,99042.81
2023-03-21T11:11:04.925Z,99038.78
2023-03-21T11:13:31.798Z,99048.75
2023-03-21T11:15:58.578Z,99036.03
2023-03-21T11:18:25.083Z,99040.81
2023-03-21T11:20:51.569Z,99031.59
2023-03-21T11:23:20.542Z,99037.63
2023-03-21T11:25:47.373Z,99018.69
2023-03-21T11:28:16.655Z,99025.06
2023-03-21T11:30:45.082Z,99017.41
2023-03-21T11:33:11.512Z,99020.41
2023-03-21T11:35:38.349Z,99015.81
2023-03-21T11:38:05.016Z,99010.19
2023-03-21T11:40:31.403Z,99008.84
2023-03-21T11:42:57.999Z,99009.13
2023-03-21T11:45:24.677Z,99011.06
2023-03-21T11:47:51.324Z,98999.84
2023-03-21T11:50:17.879Z,99003.63
2023-03-21T11:52:44.312Z,98991.16
2023-03-21T11:55:11.826Z,98993.59
2023-03-21T11:57:38.245Z,98993.69
2023-03-21T12:00:06.495Z,98989.28
2023-03-21T12:02:34.203Z,98979.31
2023-03-21T12:05:00.693Z,98978.56
2023-03-21T12:07:27.323Z,98978.03
2023-03-21T12:09:53.730Z,98977.13
2023-03-21T12:12:24.336Z,98977.53
2023-03-21T12:14:53.664Z,98971.19
2023-03-21T12:17:20.665Z,98963.28
2023-03-21T12:19:47.191Z,98966.38
2023-03-21T12:22:13.825Z,98953.06
2023-03-21T12:24:40.244Z,98959.59
2023-03-21T12:27:06.872Z,98957.72
2023-03-21T12:29:34.631Z,98955.97
2023-03-21T12:32:02.435Z,98948.94
2023-03-21T12:34:28.879Z,98940.69
2023-03-21T12:36:55.351Z,98943.09
2023-03-21T12:39:21.853Z,98941.19
2023-03-21T12:41:48.542Z,98929.56
2023-03-21T12:44:15.025Z,98937.41
2023-03-21T12:46:43.560Z,98926.91
2023-03-21T12:49:09.997Z,98931.31
2023-03-21T12:51:36.664Z,98928.72
2023-03-21T12:54:03.115Z,98924.66
2023-03-21T12:56:29.846Z,98924.34
2023-03-21T12:58:56.292Z,98917.19
2023-03-21T13:01:23.087Z,98914.72
2023-03-21T13:03:49.565Z,98914.75
2023-03-21T13:06:15.990Z,98911.13
2023-03-21T13:08:42.901Z,98914.69
2023-03-21T13:11:09.431Z,98910.91
2023-03-21T13:13:35.890Z,98901.81
2023-03-21T13:16:02.401Z,98900.59
2023-03-21T13:18:28.915Z,98899.41
2023-03-21T13:20:55.462Z,98899.50
2023-03-21T13:23:21.948Z,98900.84
2023-03-21T13:25:49.319Z,98894.94
2023-03-21T13:28:15.825Z,98896.53
2023-03-21T13:30:42.739Z,98897.13
2023-03-21T13:33:09.481Z,98885.31
2023-03-21T13:35:35.976Z,98877.44
2023-03-21T13:38:02.669Z,98884.69
2023-03-21T13:40:29.444Z,98878.31
2023-03-21T13:42:55.895Z,98876.53
2023-03-21T13:45:22.328Z,98875.88
2023-03-21T13:47:48.793Z,98867.53
2023-03-21T13:50:15.287Z,98868.84
2023-03-21T13:52:41.771Z,98861.56
2023-03-21T13:55:08.571Z,98856.63
2023-03-21T13:57:35.062Z,98862.66
2023-03-21T14:00:01.505Z,98859.91
2023-03-21T14:02:28.087Z,98865.09
2023-03-21T14:05:04.847Z,98860.00
2023-03-21T14:07:32.175Z,98861.50
2023-03-21T14:09:59.658Z,98854.59
2023-03-21T14:12:26.368Z,98854.88
2023-03-21T14:14:53.119Z,98855.97
2023-03-21T14:17:19.588Z,98858.09
2023-03-21T14:19:46.201Z,98848.44
2023-03-21T14:22:12.673Z,98844.69
2023-03-21T14:24:40.226Z,98850.09
2023-03-21T14:27:06.765Z,98842.88
2023-03-21T14:29:33.304Z,98840.94
2023-03-21T14:31:59.738Z,98839.75
2023-03-21T14:34:26.373Z,98838.63
2023-03-21T14:36:58.343Z,98841.47
2023-03-21T14:39:25.803Z,98835.63
2023-03-21T14:41:52.292Z,98835.94
2023-03-21T14:44:18.942Z,98824.56
2023-03-21T14:46:46.060Z,98835.41
2023-03-21T14:49:14.795Z,98826.31
2023-03-21T14:51:41.642Z,98825.44
2023-03-21T14:54:09.634Z,98822.28
2023-03-21T14:56:39.696Z,98821.72
2023-03-21T14:59:06.464Z,98820.91
2023-03-21T15:01:32.962Z,98815.56
2023-03-21T15:04:00.584Z,98817.66
2023-03-21T15:06:27.577Z,98823.06
2023-03-21T15:08:54.046Z,98814.97
2023-03-21T15:11:20.553Z,98823.91
2023-03-21T15:13:47.131Z,98817.28
2023-03-21T15:16:13.579Z,98816.09
2023-03-21T15:18:40.386Z,98821.66
2023-03-21T15:21:06.804Z,98815.81
2023-03-21T15:23:33.373Z,98814.97
2023-03-21T15:25:59.821Z,98816.38
2023-03-21T15:28:26.726Z,98811.91
2023-03-21T15:30:53.510Z,98812.13
2023-03-21T15:33:20.365Z,98812.97
2023-03-21T15:35:46.949Z,98811.53
2023-03-21T15:38:13.395Z,98808.72
2023-03-21T15:40:42.145Z,98806.44
2023-03-21T15:43:08.759Z,98809.88
2023-03-21T15:45:35.230Z,98802.84
2023-03-21T15:48:02.862Z,98801.44
2023-03-21T15:50:30.332Z,98796.91
2023-03-21T15:52:56.752Z,98802.66
2023-03-21T15:55:23.865Z,98802.34
2023-03-21T15:57:50.637Z,98797.72
2023-03-21T16:00:17.759Z,98806.09
2023-03-21T16:02:44.256Z,98803.53
2023-03-21T16:05:10.682Z,98801.09
2023-03-21T16:07:38.164Z,98794.00
2023-03-21T16:10:04.777Z,98803.88
2023-03-21T16:12:31.430Z,98799.38
2023-03-21T16:14:58.023Z,98800.22
2023-03-21T16:17:24.666Z,98806.69
2023-03-21T16:19:56.289Z,98798.44
2023-03-21T16:22:22.776Z,98807.16
2023-03-21T16:24:49.678Z,98798.69
2023-03-21T16:27:16.379Z,98803.72
2023-03-21T16:29:43.119Z,98806.06
2023-03-21T16:32:09.842Z,98801.66
2023-03-21T16:34:36.306Z,98795.25
2023-03-21T16:37:02.722Z,98808.06
2023-03-21T16:39:29.226Z,98807.66
2023-03-21T16:41:56.643Z,98807.66
2023-03-21T16:44:26.784Z,98801.44
2023-03-21T16:46:53.680Z,98809.59
2023-03-21T16:49:20.870Z,98805.25
2023-03-21T16:51:47.567Z,98806.22
2023-03-21T16:54:16.484Z,98803.47
2023-03-21T16:56:43.558Z,98797.78
2023-03-21T16:59:10.111Z,98807.44
2023-03-21T17:01:36.955Z,98807.81
2023-03-21T17:04:03.651Z,98810.28
2023-03-21T17:06:30.092Z,98808.59
2023-03-21T17:08:56.506Z,98810.88
2023-03-21T17:11:23.255Z,98808.97
2023-03-21T17:13:49.916Z,98806.06
2023-03-21T17:16:19.062Z,98815.56
2023-03-21T17:18:45.748Z,98817.47
2023-03-21T17:21:12.716Z,98816.44
2023-03-21T17:23:42.491Z,98811.09
2023-03-21T17:26:10.282Z,98810.25
2023-03-21T17:28:36.946Z,98809.91
2023-03-21T17:31:04.179Z,98812.72
2023-03-21T17:33:30.845Z,98818.44
2023-03-21T17:35:58.588Z,98821.16
2023-03-21T17:38:25.461Z,98828.94
2023-03-21T17:40:52.026Z,98818.81
2023-03-21T17:43:18.672Z,98822.09
2023-03-21T17:45:45.182Z,98823.31
2023-03-21T17:48:12.380Z,98823.78
2023-03-21T17:50:39.586Z,98819.69
2023-03-21T17:53:06.743Z,98821.03
2023-03-21T17:55:33.797Z,98821.28
2023-03-21T17:58:01.702Z,98820.44
2023-03-21T18:00:31.141Z,98817.19
2023-03-21T18:03:01.099Z,98824.59
2023-03-21T18:05:27.893Z,98829.66
2023-03-21T18:08:10.159Z,98821.66
2023-03-21T18:10:42.068Z,98825.78
2023-03-21T18:13:09.404Z,98837.22
2023-03-21T18:15:38.284Z,98841.78
2023-03-21T18:18:14.715Z,98845.63
2023-03-21T18:20:53.681Z,98847.78
2023-03-21T18:23:20.592Z,98849.16
2023-03-21T18:25:48.095Z,98853.97
2023-03-21T18:28:21.132Z,98855.69
2023-03-21T18:31:18.362Z,98853.50
2023-03-21T18:33:35.725Z,98856.38
2023-03-21T18:36:07.356Z,98852.94
2023-03-21T18:38:35.054Z,98851.38
2023-03-21T18:41:02.754Z,98851.47
2023-03-21T18:46:17.365Z,98861.84
2023-03-21T18:48:44.365Z,98859.13
2023-03-21T18:51:11.318Z,98859.44
2023-03-21T18:53:40.889Z,98860.91
2023-03-21T18:56:10.064Z,98859.19
2023-03-21T18:58:37.474Z,98855.91
2023-03-21T19:01:12.271Z,98856.09
2023-03-21T19:03:42.800Z,98852.25
2023-03-21T19:06:10.228Z,98853.91
2023-03-21T19:08:37.626Z,98857.44
2023-03-21T19:11:06.578Z,98856.81
2023-03-21T19:13:34.490Z,98859.03
2023-03-21T19:16:02.512Z,98858.09
2023-03-21T19:18:49.944Z,98866.06
2023-03-21T19:21:18.598Z,98862.09
2023-03-21T19:24:20.855Z,98863.53
2023-03-21T19:26:32.320Z,98863.75
2023-03-21T19:28:59.938Z,98857.59
2023-03-21T19:31:29.662Z,98858.72
2023-03-21T19:33:57.798Z,98848.19
2023-03-21T19:36:26.438Z,98856.41
2023-03-21T19:38:53.917Z,98855.66
2023-03-21T19:41:23.961Z,98855.84
2023-03-21T19:43:55.120Z,98851.28
2023-03-21T19:46:23.765Z,98848.38
2023-03-21T19:48:55.924Z,98850.97
2023-03-21T19:51:30.911Z,98850.47
2023-03-21T19:53:59.233Z,98847.66
2023-03-21T19:56:27.331Z,98848.28
2023-03-21T19:58:54.110Z,98855.25
2023-03-21T20:01:21.886Z,98856.53
2023-03-21T20:03:51.135Z,98854.16
2023-03-21T20:06:17.913Z,98853.88
2023-03-21T20:09:37.610Z,98859.34
2023-03-21T20:11:34.511Z,98861.22
2023-03-21T20:14:01.034Z,98860.41
2023-03-21T20:16:34.227Z,98863.84
2023-03-21T20:19:02.014Z,98861.56
2023-03-21T20:21:49.104Z,98867.59
2023-03-21T20:24:20.153Z,98866.00
2023-03-21T20:26:49.980Z,98868.34
2023-03-21T20:32:04.156Z,98864.72
2023-03-21T20:34:33.588Z,98870.31
2023-03-21T20:37:01.905Z,98871.66
2023-03-21T20:39:30.019Z,98871.09
2023-03-21T20:41:58.882Z,98873.56
2023-03-21T20:47:13.342Z,98883.53
2023-03-21T20:49:40.817Z,98883.09
2023-03-21T20:52:54.510Z,98881.69
2023-03-21T20:54:55.619Z,98880.75
2023-03-21T20:57:22.267Z,98884.88
2023-03-21T20:59:51.640Z,98893.34
2023-03-21T21:02:18.267Z,98890.94
2023-03-21T21:05:08.137Z,98892.19
2023-03-21T21:07:34.426Z,98886.81
2023-03-21T21:10:02.010Z,98885.97
2023-03-21T21:12:31.788Z,98884.53
2023-03-21T21:14:58.813Z,98887.09
2023-03-21T21:18:03.858Z,98881.56
2023-03-21T21:20:12.377Z,98877.09
2023-03-21T21:22:39.876Z,98880.59
2023-03-21T21:25:08.154Z,98884.72
2023-03-21T21:27:34.952Z,98881.34
2023-03-21T21:30:01.795Z,98881.56
2023-03-21T21:32:29.435Z,98873.72
2023-03-21T21:34:58.211Z,98877.22
2023-03-21T21:37:24.668Z,98872.88
2023-03-21T21:39:51.293Z,98871.19
2023-03-21T21:42:20.103Z,98877.34
2023-03-21T21:44:46.607Z,98870.47
2023-03-21T21:47:13.070Z,98874.78
2023-03-21T21:49:40.639Z,98876.72
2023-03-21T21:52:07.109Z,98877.66
2023-03-21T21:54:33.857Z,98871.00
2023-03-21T21:57:00.343Z,98875.25
2023-03-21T21:59:26.783Z,98881.44
2023-03-21T22:01:54.398Z,98874.47
2023-03-21T22:04:24.070Z,98872.28
2023-03-21T22:06:50.768Z,98871.94
2023-03-21T22:09:20.181Z,98880.09
2023-03-21T22:11:46.578Z,98876.78
2023-03-21T22:14:12.980Z,98875.59
2023-03-21T22:16:39.687Z,98882.47
2023-03-21T22:19:06.246Z,98886.94
2023-03-21T22:21:32.720Z,98884.28
2023-03-21T22:23:59.168Z,98887.78
2023-03-21T22:26:25.692Z,98884.78
2023-03-21T22:28:52.508Z,98884.16
2023-03-21T22:31:19.031Z,98879.72
2023-03-21T22:33:45.488Z,98883.31
2023-03-21T22:36:12.121Z,98887.59
2023-03-21T22:38:38.675Z,98884.84
2023-03-21T22:41:05.323Z,98880.16
2023-03-21T22:43:34.409Z,98881.47
2023-03-21T22:46:02.229Z,98880.72
2023-03-21T22:48:28.821Z,98886.72
2023-03-21T22:50:55.716Z,98872.06
2023-03-21T22:53:22.416Z,98883.31
2023-03-21T22:55:48.893Z,98885.63
2023-03-21T22:58:15.472Z,98880.16
2023-03-21T23:00:41.841Z,98882.69
2023-03-21T23:03:08.840Z,98885.00
2023-03-21T23:05:35.471Z,98886.59
2023-03-21T23:08:01.915Z,98884.00
2023-03-21T23:10:30.662Z,98881.34
2023-03-21T23:12:58.651Z,98886.09
2023-03-21T23:15:25.138Z,98888.56
2023-03-21T23:17:51.833Z,98880.09
2023-03-21T23:20:18.253Z,98886.88
2023-03-21T23:22:44.649Z,98887.44
2023-03-21T23:25:11.382Z,98893.56
2023-03-21T23:27:37.904Z,98884.47
2023-03-21T23:30:04.365Z,98883.50
2023-03-21T23:32:31.005Z,98886.56
2023-03-21T23:34:57.459Z,98884.25
2023-03-21T23:37:24.002Z,98885.94
2023-03-21T23:39:50.801Z,98879.41
2023-03-21T23:42:19.766Z,98878.94
2023-03-21T23:44:48.746Z,98873.38
2023-03-21T23:47:18.395Z,98873.66
2023-03-21T23:49:44.938Z,98876.22
2023-03-21T23:52:12.214Z,98868.81
2023-03-21T23:54:38.845Z,98876.84
2023-03-21T23:57:06.722Z,98878.72
2023-03-21T23:59:44.324Z,98870.38
